sensor_id;sensor_type;location;lat;lon;timestamp;temperature;humidity
12223;DHT22;6174;49.058;8.524;2022-12-29T05:02:37;13.00;96.80
12223;DHT22;6174;49.058;8.524;2022-12-29T05:05:05;13.00;97.00
12223;DHT22;6174;49.058;8.524;2022-12-29T05:07:31;13.00;97.00
12223;DHT22;6174;49.058;8.524;2022-12-29T05:09:59;13.00;97.30
12223;DHT22;6174;49.058;8.524;2022-12-29T05:12:29;13.00;97.30
12223;DHT22;6174;49.058;8.524;2022-12-29T05:17:24;13.10;97.00
12223;DHT22;6174;49.058;8.524;2022-12-29T05:19:52;13.10;97.00
12223;DHT22;6174;49.058;8.524;2022-12-29T05:22:19;13.10;97.30
12223;DHT22;6174;49.058;8.524;2022-12-29T05:24:46;13.20;97.10
12223;DHT22;6174;49.058;8.524;2022-12-29T05:27:13;13.20;97.10
12223;DHT22;6174;49.058;8.524;2022-12-29T05:29:39;13.20;97.30
12223;DHT22;6174;49.058;8.524;2022-12-29T05:32:06;13.10;97.40
12223;DHT22;6174;49.058;8.524;2022-12-29T05:34:33;13.10;97.50
12223;DHT22;6174;49.058;8.524;2022-12-29T05:37:01;13.20;97.10
12223;DHT22;6174;49.058;8.524;2022-12-29T05:39:28;13.20;97.30
12223;DHT22;6174;49.058;8.524;2022-12-29T05:41:55;13.20;97.40
12223;DHT22;6174;49.058;8.524;2022-12-29T05:44:22;13.30;97.60
12223;DHT22;6174;49.058;8.524;2022-12-29T05:46:49;13.10;97.60
12223;DHT22;6174;49.058;8.524;2022-12-29T05:49:16;13.20;97.60
12223;DHT22;6174;49.058;8.524;2022-12-29T05:51:42;13.10;97.70
12223;DHT22;6174;49.058;8.524;2022-12-29T05:54:11;13.10;97.70
12223;DHT22;6174;49.058;8.524;2022-12-29T05:56:37;13.10;97.60
12223;DHT22;6174;49.058;8.524;2022-12-29T05:59:04;13.20;97.50
12223;DHT22;6174;49.058;8.524;2022-12-29T06:01:31;13.20;97.30
12223;DHT22;6174;49.058;8.524;2022-12-29T06:03:59;13.20;97.20
12223;DHT22;6174;49.058;8.524;2022-12-29T06:06:26;13.20;97.30
12223;DHT22;6174;49.058;8.524;2022-12-29T06:08:53;13.20;97.20
12223;DHT22;6174;49.058;8.524;2022-12-29T06:11:21;13.30;97.30
12223;DHT22;6174;49.058;8.524;2022-12-29T06:13:48;13.30;97.10
12223;DHT22;6174;49.058;8.524;2022-12-29T06:16:14;13.30;97.20
12223;DHT22;6174;49.058;8.524;2022-12-29T06:18:41;13.20;97.30
12223;DHT22;6174;49.058;8.524;2022-12-29T06:21:08;13.20;97.30
12223;DHT22;6174;49.058;8.524;2022-12-29T06:23:34;13.30;97.20
12223;DHT22;6174;49.058;8.524;2022-12-29T06:26:01;13.20;97.30
12223;DHT22;6174;49.058;8.524;2022-12-29T06:28:29;13.30;96.90
12223;DHT22;6174;49.058;8.524;2022-12-29T06:30:56;13.30;96.80
12223;DHT22;6174;49.058;8.524;2022-12-29T06:33:23;13.30;96.70
12223;DHT22;6174;49.058;8.524;2022-12-29T06:35:50;13.30;96.50
12223;DHT22;6174;49.058;8.524;2022-12-29T06:38:16;13.30;96.40
12223;DHT22;6174;49.058;8.524;2022-12-29T06:40:43;13.30;96.30
12223;DHT22;6174;49.058;8.524;2022-12-29T06:43:11;13.40;96.20
12223;DHT22;6174;49.058;8.524;2022-12-29T06:45:39;13.40;95.80
12223;DHT22;6174;49.058;8.524;2022-12-29T06:48:06;13.40;96.10
12223;DHT22;6174;49.058;8.524;2022-12-29T06:50:33;13.50;95.80
12223;DHT22;6174;49.058;8.524;2022-12-29T06:53:00;13.40;95.80
12223;DHT22;6174;49.058;8.524;2022-12-29T06:55:27;13.50;95.60
12223;DHT22;6174;49.058;8.524;2022-12-29T06:57:54;13.50;95.30
12223;DHT22;6174;49.058;8.524;2022-12-29T07:00:21;13.50;95.20
12223;DHT22;6174;49.058;8.524;2022-12-29T07:02:49;13.40;95.40
12223;DHT22;6174;49.058;8.524;2022-12-29T07:05:16;13.40;95.40
12223;DHT22;6174;49.058;8.524;2022-12-29T07:07:43;13.40;95.00
12223;DHT22;6174;49.058;8.524;2022-12-29T07:10:10;13.40;95.10
12223;DHT22;6174;49.058;8.524;2022-12-29T07:12:36;13.40;94.90
12223;DHT22;6174;49.058;8.524;2022-12-29T07:15:04;13.40;94.90
12223;DHT22;6174;49.058;8.524;2022-12-29T07:17:30;13.50;94.60
12223;DHT22;6174;49.058;8.524;2022-12-29T07:19:59;13.50;94.70
12223;DHT22;6174;49.058;8.524;2022-12-29T07:22:25;13.50;94.70
12223;DHT22;6174;49.058;8.524;2022-12-29T07:24:52;13.40;94.70
12223;DHT22;6174;49.058;8.524;2022-12-29T07:27:19;13.40;94.70
12223;DHT22;6174;49.058;8.524;2022-12-29T07:29:45;13.50;94.40
12223;DHT22;6174;49.058;8.524;2022-12-29T07:32:12;13.40;94.20
12223;DHT22;6174;49.058;8.524;2022-12-29T07:34:39;13.50;94.00
12223;DHT22;6174;49.058;8.524;2022-12-29T07:37:07;13.60;94.00
12223;DHT22;6174;49.058;8.524;2022-12-29T07:39:34;13.60;94.00
12223;DHT22;6174;49.058;8.524;2022-12-29T07:42:00;13.60;93.70
12223;DHT22;6174;49.058;8.524;2022-12-29T07:44:27;13.60;93.80
12223;DHT22;6174;49.058;8.524;2022-12-29T07:46:54;13.60;93.60
12223;DHT22;6174;49.058;8.524;2022-12-29T07:49:20;13.50;93.70
12223;DHT22;6174;49.058;8.524;2022-12-29T07:51:47;13.60;93.40
12223;DHT22;6174;49.058;8.524;2022-12-29T07:54:15;13.60;93.40
12223;DHT22;6174;49.058;8.524;2022-12-29T07:56:43;13.60;93.20
12223;DHT22;6174;49.058;8.524;2022-12-29T07:59:10;13.60;93.40
12223;DHT22;6174;49.058;8.524;2022-12-29T08:01:38;13.60;93.30
12223;DHT22;6174;49.058;8.524;2022-12-29T08:04:04;13.60;92.80
12223;DHT22;6174;49.058;8.524;2022-12-29T08:06:31;13.70;92.70
12223;DHT22;6174;49.058;8.524;2022-12-29T08:08:58;13.70;93.00
12223;DHT22;6174;49.058;8.524;2022-12-29T08:11:27;13.70;92.90
12223;DHT22;6174;49.058;8.524;2022-12-29T08:13:54;13.70;92.80
12223;DHT22;6174;49.058;8.524;2022-12-29T08:16:21;13.60;92.80
12223;DHT22;6174;49.058;8.524;2022-12-29T08:18:47;13.70;93.00
12223;DHT22;6174;49.058;8.524;2022-12-29T08:21:14;13.70;92.60
12223;DHT22;6174;49.058;8.524;2022-12-29T08:23:41;13.70;92.70
12223;DHT22;6174;49.058;8.524;2022-12-29T08:26:07;13.70;92.90
12223;DHT22;6174;49.058;8.524;2022-12-29T08:28:35;13.70;92.80
12223;DHT22;6174;49.058;8.524;2022-12-29T08:31:02;13.80;92.60
12223;DHT22;6174;49.058;8.524;2022-12-29T08:33:30;13.70;92.70
12223;DHT22;6174;49.058;8.524;2022-12-29T08:35:59;13.70;92.80
12223;DHT22;6174;49.058;8.524;2022-12-29T08:38:27;13.80;92.60
12223;DHT22;6174;49.058;8.524;2022-12-29T08:40:54;13.80;92.90
12223;DHT22;6174;49.058;8.524;2022-12-29T08:43:21;13.80;92.70
12223;DHT22;6174;49.058;8.524;2022-12-29T08:45:49;13.80;92.70
12223;DHT22;6174;49.058;8.524;2022-12-29T08:48:15;13.80;92.70
12223;DHT22;6174;49.058;8.524;2022-12-29T08:50:45;13.80;92.70
12223;DHT22;6174;49.058;8.524;2022-12-29T08:53:12;13.80;92.80
12223;DHT22;6174;49.058;8.524;2022-12-29T08:55:39;13.80;92.70
12223;DHT22;6174;49.058;8.524;2022-12-29T08:58:06;13.90;92.70
12223;DHT22;6174;49.058;8.524;2022-12-29T09:00:33;13.90;92.70
12223;DHT22;6174;49.058;8.524;2022-12-29T09:03:01;13.80;93.00
12223;DHT22;6174;49.058;8.524;2022-12-29T09:05:28;13.80;92.70
12223;DHT22;6174;49.058;8.524;2022-12-29T09:07:54;13.80;93.00
12223;DHT22;6174;49.058;8.524;2022-12-29T09:10:21;13.80;93.00
12223;DHT22;6174;49.058;8.524;2022-12-29T09:12:49;13.80;92.90
12223;DHT22;6174;49.058;8.524;2022-12-29T09:15:15;13.80;93.00
12223;DHT22;6174;49.058;8.524;2022-12-29T09:17:42;13.90;93.10
12223;DHT22;6174;49.058;8.524;2022-12-29T09:20:12;13.90;93.10
12223;DHT22;6174;49.058;8.524;2022-12-29T09:22:39;13.90;93.00
12223;DHT22;6174;49.058;8.524;2022-12-29T09:25:06;13.90;93.10
12223;DHT22;6174;49.058;8.524;2022-12-29T09:27:34;13.90;93.50
12223;DHT22;6174;49.058;8.524;2022-12-29T09:30:01;13.90;93.40
12223;DHT22;6174;49.058;8.524;2022-12-29T09:32:28;13.90;93.40
12223;DHT22;6174;49.058;8.524;2022-12-29T09:34:55;13.90;93.50
12223;DHT22;6174;49.058;8.524;2022-12-29T09:37:23;13.90;93.80
12223;DHT22;6174;49.058;8.524;2022-12-29T09:39:50;13.90;93.70
12223;DHT22;6174;49.058;8.524;2022-12-29T09:42:21;13.90;94.10
12223;DHT22;6174;49.058;8.524;2022-12-29T09:44:56;13.80;94.20
12223;DHT22;6174;49.058;8.524;2022-12-29T09:47:26;13.90;94.10
12223;DHT22;6174;49.058;8.524;2022-12-29T09:49:56;13.90;94.30
12223;DHT22;6174;49.058;8.524;2022-12-29T09:52:30;13.80;94.60
12223;DHT22;6174;49.058;8.524;2022-12-29T09:55:00;13.80;94.90
12223;DHT22;6174;49.058;8.524;2022-12-29T09:57:34;13.90;94.90
12223;DHT22;6174;49.058;8.524;2022-12-29T10:00:06;13.80;95.00
12223;DHT22;6174;49.058;8.524;2022-12-29T10:02:38;13.80;94.90
12223;DHT22;6174;49.058;8.524;2022-12-29T10:05:24;13.80;95.20
12223;DHT22;6174;49.058;8.524;2022-12-29T10:08:04;13.80;94.90
12223;DHT22;6174;49.058;8.524;2022-12-29T10:10:37;13.90;96.20
12223;DHT22;6174;49.058;8.524;2022-12-29T10:13:16;13.80;96.50
12223;DHT22;6174;49.058;8.524;2022-12-29T10:15:54;13.80;96.70
12223;DHT22;6174;49.058;8.524;2022-12-29T10:18:37;13.80;96.60
12223;DHT22;6174;49.058;8.524;2022-12-29T10:21:10;13.80;97.00
12223;DHT22;6174;49.058;8.524;2022-12-29T10:23:44;13.70;98.30
12223;DHT22;6174;49.058;8.524;2022-12-29T10:26:15;13.50;99.60
12223;DHT22;6174;49.058;8.524;2022-12-29T10:28:44;13.40;99.90
12223;DHT22;6174;49.058;8.524;2022-12-29T10:31:16;13.40;99.90
12223;DHT22;6174;49.058;8.524;2022-12-29T10:33:49;13.30;99.90
12223;DHT22;6174;49.058;8.524;2022-12-29T10:36:27;13.20;99.90
12223;DHT22;6174;49.058;8.524;2022-12-29T10:39:04;13.10;99.90
12223;DHT22;6174;49.058;8.524;2022-12-29T10:41:38;13.00;99.90
12223;DHT22;6174;49.058;8.524;2022-12-29T10:44:09;13.00;99.90
12223;DHT22;6174;49.058;8.524;2022-12-29T10:46:38;12.90;99.90
12223;DHT22;6174;49.058;8.524;2022-12-29T10:49:05;12.90;99.90
12223;DHT22;6174;49.058;8.524;2022-12-29T10:51:35;12.90;99.90
12223;DHT22;6174;49.058;8.524;2022-12-29T10:54:10;13.00;99.90
12223;DHT22;6174;49.058;8.524;2022-12-29T10:56:42;13.00;99.90
12223;DHT22;6174;49.058;8.524;2022-12-29T10:59:13;13.10;99.90
12223;DHT22;6174;49.058;8.524;2022-12-29T11:01:49;13.00;99.90
12223;DHT22;6174;49.058;8.524;2022-12-29T11:04:29;13.10;99.90
12223;DHT22;6174;49.058;8.524;2022-12-29T11:06:57;13.10;99.90
12223;DHT22;6174;49.058;8.524;2022-12-29T11:09:28;13.10;99.90
12223;DHT22;6174;49.058;8.524;2022-12-29T11:11:55;13.10;99.90
12223;DHT22;6174;49.058;8.524;2022-12-29T11:14:27;13.10;99.90
12223;DHT22;6174;49.058;8.524;2022-12-29T11:16:59;13.10;99.90
12223;DHT22;6174;49.058;8.524;2022-12-29T11:19:27;12.90;99.90
12223;DHT22;6174;49.058;8.524;2022-12-29T11:22:20;13.10;99.90
12223;DHT22;6174;49.058;8.524;2022-12-29T11:24:50;13.10;99.90
12223;DHT22;6174;49.058;8.524;2022-12-29T11:28:02;13.20;99.90
12223;DHT22;6174;49.058;8.524;2022-12-29T11:30:31;13.40;99.90
12223;DHT22;6174;49.058;8.524;2022-12-29T11:32:58;13.80;99.90
12223;DHT22;6174;49.058;8.524;2022-12-29T11:35:41;13.70;99.90
12223;DHT22;6174;49.058;8.524;2022-12-29T11:38:24;13.80;99.90
12223;DHT22;6174;49.058;8.524;2022-12-29T11:40:56;14.00;99.90
12223;DHT22;6174;49.058;8.524;2022-12-29T11:43:34;13.90;99.90
12223;DHT22;6174;49.058;8.524;2022-12-29T11:49:41;13.90;99.30
12223;DHT22;6174;49.058;8.524;2022-12-29T11:52:27;13.90;99.50
12223;DHT22;6174;49.058;8.524;2022-12-29T11:54:57;14.00;99.00
12223;DHT22;6174;49.058;8.524;2022-12-29T11:57:27;14.10;98.60
12223;DHT22;6174;49.058;8.524;2022-12-29T11:59:55;14.30;98.80
12223;DHT22;6174;49.058;8.524;2022-12-29T12:02:53;14.20;98.50
12223;DHT22;6174;49.058;8.524;2022-12-29T12:05:30;14.30;98.20
12223;DHT22;6174;49.058;8.524;2022-12-29T12:08:05;14.20;97.50
12223;DHT22;6174;49.058;8.524;2022-12-29T12:10:39;14.10;97.90
12223;DHT22;6174;49.058;8.524;2022-12-29T12:13:18;14.10;97.90
12223;DHT22;6174;49.058;8.524;2022-12-29T12:15:54;14.00;98.50
12223;DHT22;6174;49.058;8.524;2022-12-29T12:18:30;14.00;98.10
12223;DHT22;6174;49.058;8.524;2022-12-29T12:21:24;13.60;97.90
12223;DHT22;6174;49.058;8.524;2022-12-29T12:27:13;13.90;98.00
12223;DHT22;6174;49.058;8.524;2022-12-29T12:29:56;14.00;97.30
12223;DHT22;6174;49.058;8.524;2022-12-29T12:32:36;14.00;97.40
12223;DHT22;6174;49.058;8.524;2022-12-29T12:35:12;13.90;97.20
12223;DHT22;6174;49.058;8.524;2022-12-29T12:37:52;13.90;97.20
12223;DHT22;6174;49.058;8.524;2022-12-29T12:40:39;14.00;97.00
12223;DHT22;6174;49.058;8.524;2022-12-29T12:43:25;13.90;97.00
12223;DHT22;6174;49.058;8.524;2022-12-29T12:46:16;14.00;96.90
12223;DHT22;6174;49.058;8.524;2022-12-29T12:48:58;14.00;96.80
12223;DHT22;6174;49.058;8.524;2022-12-29T12:51:43;14.00;96.90
12223;DHT22;6174;49.058;8.524;2022-12-29T12:54:25;13.90;97.10
12223;DHT22;6174;49.058;8.524;2022-12-29T12:57:02;13.90;97.20
12223;DHT22;6174;49.058;8.524;2022-12-29T12:59:42;13.90;97.70
12223;DHT22;6174;49.058;8.524;2022-12-29T13:02:24;13.90;97.80
12223;DHT22;6174;49.058;8.524;2022-12-29T13:05:15;13.80;98.20
12223;DHT22;6174;49.058;8.524;2022-12-29T13:07:53;13.90;98.30
12223;DHT22;6174;49.058;8.524;2022-12-29T13:10:36;13.80;98.10
12223;DHT22;6174;49.058;8.524;2022-12-29T13:13:19;13.90;98.30
12223;DHT22;6174;49.058;8.524;2022-12-29T13:15:54;13.90;98.50
12223;DHT22;6174;49.058;8.524;2022-12-29T13:18:30;13.90;98.30
12223;DHT22;6174;49.058;8.524;2022-12-29T13:21:04;13.90;98.50
12223;DHT22;6174;49.058;8.524;2022-12-29T13:23:37;13.90;98.60
12223;DHT22;6174;49.058;8.524;2022-12-29T13:26:11;13.90;99.00
12223;DHT22;6174;49.058;8.524;2022-12-29T13:28:51;13.90;98.90
12223;DHT22;6174;49.058;8.524;2022-12-29T13:31:24;13.90;98.60
12223;DHT22;6174;49.058;8.524;2022-12-29T13:34:03;13.90;98.20
12223;DHT22;6174;49.058;8.524;2022-12-29T13:36:37;13.90;98.60
12223;DHT22;6174;49.058;8.524;2022-12-29T13:39:12;13.80;98.50
12223;DHT22;6174;49.058;8.524;2022-12-29T13:41:48;13.70;98.60
12223;DHT22;6174;49.058;8.524;2022-12-29T13:44:20;13.60;99.30
12223;DHT22;6174;49.058;8.524;2022-12-29T13:46:48;13.60;99.90
12223;DHT22;6174;49.058;8.524;2022-12-29T13:49:19;13.40;99.90
12223;DHT22;6174;49.058;8.524;2022-12-29T13:51:49;13.30;99.90
12223;DHT22;6174;49.058;8.524;2022-12-29T13:54:26;13.10;99.90
12223;DHT22;6174;49.058;8.524;2022-12-29T13:57:02;13.00;99.90
12223;DHT22;6174;49.058;8.524;2022-12-29T13:59:40;12.90;99.90
12223;DHT22;6174;49.058;8.524;2022-12-29T14:02:17;12.90;99.90
12223;DHT22;6174;49.058;8.524;2022-12-29T14:04:58;12.70;99.90
12223;DHT22;6174;49.058;8.524;2022-12-29T14:07:25;12.60;99.90
12223;DHT22;6174;49.058;8.524;2022-12-29T14:09:54;12.30;99.90
12223;DHT22;6174;49.058;8.524;2022-12-29T14:12:36;12.20;99.90
12223;DHT22;6174;49.058;8.524;2022-12-29T14:15:14;12.00;99.90
12223;DHT22;6174;49.058;8.524;2022-12-29T14:17:41;11.80;99.90
12223;DHT22;6174;49.058;8.524;2022-12-29T14:20:19;11.70;99.90
12223;DHT22;6174;49.058;8.524;2022-12-29T14:22:58;11.60;99.90
12223;DHT22;6174;49.058;8.524;2022-12-29T14:25:57;11.50;99.90
12223;DHT22;6174;49.058;8.524;2022-12-29T14:28:26;11.40;99.90
12223;DHT22;6174;49.058;8.524;2022-12-29T14:30:55;11.40;99.90
12223;DHT22;6174;49.058;8.524;2022-12-29T14:33:23;11.80;99.90
12223;DHT22;6174;49.058;8.524;2022-12-29T14:35:57;11.30;99.90
12223;DHT22;6174;49.058;8.524;2022-12-29T14:38:33;11.20;99.90
12223;DHT22;6174;49.058;8.524;2022-12-29T14:41:26;11.50;99.90
12223;DHT22;6174;49.058;8.524;2022-12-29T14:44:02;10.80;99.90
12223;DHT22;6174;49.058;8.524;2022-12-29T14:46:43;11.30;99.90
12223;DHT22;6174;49.058;8.524;2022-12-29T14:49:19;10.70;99.90
12223;DHT22;6174;49.058;8.524;2022-12-29T14:58:17;10.60;99.90
12223;DHT22;6174;49.058;8.524;2022-12-29T15:00:45;10.60;99.90
12223;DHT22;6174;49.058;8.524;2022-12-29T15:03:42;10.70;99.90
12223;DHT22;6174;49.058;8.524;2022-12-29T15:06:24;10.60;99.90
12223;DHT22;6174;49.058;8.524;2022-12-29T15:08:58;10.70;99.90
12223;DHT22;6174;49.058;8.524;2022-12-29T15:11:41;10.70;99.90
12223;DHT22;6174;49.058;8.524;2022-12-29T15:14:28;10.80;99.90
12223;DHT22;6174;49.058;8.524;2022-12-29T15:16:55;10.90;99.90
12223;DHT22;6174;49.058;8.524;2022-12-29T15:19:22;10.70;99.90
12223;DHT22;6174;49.058;8.524;2022-12-29T15:21:50;10.70;99.90
12223;DHT22;6174;49.058;8.524;2022-12-29T15:24:18;10.70;99.90
12223;DHT22;6174;49.058;8.524;2022-12-29T15:26:47;10.70;99.90
12223;DHT22;6174;49.058;8.524;2022-12-29T15:29:37;10.70;99.90
12223;DHT22;6174;49.058;8.524;2022-12-29T15:32:18;10.60;99.90
12223;DHT22;6174;49.058;8.524;2022-12-29T15:34:47;10.60;99.90
12223;DHT22;6174;49.058;8.524;2022-12-29T15:37:18;10.60;99.90
12223;DHT22;6174;49.058;8.524;2022-12-29T15:39:45;11.00;99.90
12223;DHT22;6174;49.058;8.524;2022-12-29T15:42:29;10.60;99.90
12223;DHT22;6174;49.058;8.524;2022-12-29T15:45:03;10.70;99.90
12223;DHT22;6174;49.058;8.524;2022-12-29T15:47:31;10.60;99.90
12223;DHT22;6174;49.058;8.524;2022-12-29T15:50:02;11.00;99.90
12223;DHT22;6174;49.058;8.524;2022-12-29T15:52:31;10.60;99.90
12223;DHT22;6174;49.058;8.524;2022-12-29T15:54:59;10.40;99.90
12223;DHT22;6174;49.058;8.524;2022-12-29T15:57:29;10.40;99.90
12223;DHT22;6174;49.058;8.524;2022-12-29T15:59:57;10.60;99.90
12223;DHT22;6174;49.058;8.524;2022-12-29T16:02:26;10.40;99.90
12223;DHT22;6174;49.058;8.524;2022-12-29T16:04:54;10.40;99.90
12223;DHT22;6174;49.058;8.524;2022-12-29T16:07:26;10.30;99.90
12223;DHT22;6174;49.058;8.524;2022-12-29T16:09:55;10.30;99.90
12223;DHT22;6174;49.058;8.524;2022-12-29T16:12:23;10.40;99.90
12223;DHT22;6174;49.058;8.524;2022-12-29T16:14:54;10.30;99.90
12223;DHT22;6174;49.058;8.524;2022-12-29T16:17:23;10.60;99.90
12223;DHT22;6174;49.058;8.524;2022-12-29T16:19:56;10.40;99.90
12223;DHT22;6174;49.058;8.524;2022-12-29T16:22:27;10.40;99.90
12223;DHT22;6174;49.058;8.524;2022-12-29T16:24:56;10.30;99.90
12223;DHT22;6174;49.058;8.524;2022-12-29T16:27:28;10.30;99.90
12223;DHT22;6174;49.058;8.524;2022-12-29T16:29:57;10.30;99.90
12223;DHT22;6174;49.058;8.524;2022-12-29T16:32:27;10.40;99.90
12223;DHT22;6174;49.058;8.524;2022-12-29T16:35:10;10.40;99.90
12223;DHT22;6174;49.058;8.524;2022-12-29T16:37:37;10.30;99.90
12223;DHT22;6174;49.058;8.524;2022-12-29T16:40:24;10.40;99.90
12223;DHT22;6174;49.058;8.524;2022-12-29T16:42:55;10.40;99.90
12223;DHT22;6174;49.058;8.524;2022-12-29T16:48:34;10.40;99.90
12223;DHT22;6174;49.058;8.524;2022-12-29T16:51:05;10.40;99.90
12223;DHT22;6174;49.058;8.524;2022-12-29T16:53:34;10.40;99.90
12223;DHT22;6174;49.058;8.524;2022-12-29T16:56:06;10.40;99.90
12223;DHT22;6174;49.058;8.524;2022-12-29T16:58:34;10.40;99.90
12223;DHT22;6174;49.058;8.524;2022-12-29T17:01:03;10.40;99.90
12223;DHT22;6174;49.058;8.524;2022-12-29T17:03:34;10.40;99.90
12223;DHT22;6174;49.058;8.524;2022-12-29T17:06:05;10.50;99.90
12223;DHT22;6174;49.058;8.524;2022-12-29T17:08:39;10.50;99.90
12223;DHT22;6174;49.058;8.524;2022-12-29T17:11:19;10.50;99.90
12223;DHT22;6174;49.058;8.524;2022-12-29T17:14:04;10.50;99.90
12223;DHT22;6174;49.058;8.524;2022-12-29T17:16:31;10.50;99.90
12223;DHT22;6174;49.058;8.524;2022-12-29T17:18:58;10.40;99.90
12223;DHT22;6174;49.058;8.524;2022-12-29T17:21:26;10.50;99.90
12223;DHT22;6174;49.058;8.524;2022-12-29T17:23:52;10.50;99.90
12223;DHT22;6174;49.058;8.524;2022-12-29T17:26:19;10.50;99.90
12223;DHT22;6174;49.058;8.524;2022-12-29T17:28:46;10.50;99.90
12223;DHT22;6174;49.058;8.524;2022-12-29T17:31:13;10.50;99.90
12223;DHT22;6174;49.058;8.524;2022-12-29T17:33:40;10.40;99.90
12223;DHT22;6174;49.058;8.524;2022-12-29T17:36:08;10.40;99.90
12223;DHT22;6174;49.058;8.524;2022-12-29T17:38:38;10.40;99.90
12223;DHT22;6174;49.058;8.524;2022-12-29T17:41:11;10.30;99.90
12223;DHT22;6174;49.058;8.524;2022-12-29T17:43:39;10.40;99.90
12223;DHT22;6174;49.058;8.524;2022-12-29T17:46:06;10.40;99.90
12223;DHT22;6174;49.058;8.524;2022-12-29T17:48:33;10.40;99.90
12223;DHT22;6174;49.058;8.524;2022-12-29T17:51:00;10.40;99.90
12223;DHT22;6174;49.058;8.524;2022-12-29T17:53:28;10.30;99.90
12223;DHT22;6174;49.058;8.524;2022-12-29T17:55:57;10.30;99.90
12223;DHT22;6174;49.058;8.524;2022-12-29T17:58:25;10.40;99.90
12223;DHT22;6174;49.058;8.524;2022-12-29T18:00:53;10.40;99.90
12223;DHT22;6174;49.058;8.524;2022-12-29T18:03:23;10.30;99.90
12223;DHT22;6174;49.058;8.524;2022-12-29T18:05:51;10.30;99.90
12223;DHT22;6174;49.058;8.524;2022-12-29T18:08:18;10.30;99.90
12223;DHT22;6174;49.058;8.524;2022-12-29T18:10:45;10.20;99.90
12223;DHT22;6174;49.058;8.524;2022-12-29T18:13:21;10.20;99.90
12223;DHT22;6174;49.058;8.524;2022-12-29T18:15:50;10.20;99.90
12223;DHT22;6174;49.058;8.524;2022-12-29T18:18:18;10.10;99.90
12223;DHT22;6174;49.058;8.524;2022-12-29T18:20:46;10.10;99.90
12223;DHT22;6174;49.058;8.524;2022-12-29T18:23:18;10.10;99.90
12223;DHT22;6174;49.058;8.524;2022-12-29T18:25:48;10.10;99.90
12223;DHT22;6174;49.058;8.524;2022-12-29T18:28:17;10.10;99.90
12223;DHT22;6174;49.058;8.524;2022-12-29T18:30:44;10.00;99.90
12223;DHT22;6174;49.058;8.524;2022-12-29T18:33:13;10.00;99.90
12223;DHT22;6174;49.058;8.524;2022-12-29T18:35:44;10.00;99.90
12223;DHT22;6174;49.058;8.524;2022-12-29T18:38:12;10.00;99.90
12223;DHT22;6174;49.058;8.524;2022-12-29T18:40:39;10.00;99.90
12223;DHT22;6174;49.058;8.524;2022-12-29T18:43:06;10.00;99.90
12223;DHT22;6174;49.058;8.524;2022-12-29T18:45:34;10.00;99.90
12223;DHT22;6174;49.058;8.524;2022-12-29T18:48:01;10.00;99.90
12223;DHT22;6174;49.058;8.524;2022-12-29T18:50:27;10.00;99.90
12223;DHT22;6174;49.058;8.524;2022-12-29T18:52:54;10.00;99.90
12223;DHT22;6174;49.058;8.524;2022-12-29T18:55:23;10.00;99.90
12223;DHT22;6174;49.058;8.524;2022-12-29T18:57:50;10.00;99.90
12223;DHT22;6174;49.058;8.524;2022-12-29T19:00:19;10.10;99.90
12223;DHT22;6174;49.058;8.524;2022-12-29T19:02:48;10.00;99.90
12223;DHT22;6174;49.058;8.524;2022-12-29T19:05:21;10.00;99.90
12223;DHT22;6174;49.058;8.524;2022-12-29T19:07:48;10.00;99.90
12223;DHT22;6174;49.058;8.524;2022-12-29T19:10:15;10.00;99.90
12223;DHT22;6174;49.058;8.524;2022-12-29T19:12:42;9.90;99.90
12223;DHT22;6174;49.058;8.524;2022-12-29T19:15:16;9.90;99.90
12223;DHT22;6174;49.058;8.524;2022-12-29T19:17:46;9.90;99.90
12223;DHT22;6174;49.058;8.524;2022-12-29T19:20:25;9.90;99.90
12223;DHT22;6174;49.058;8.524;2022-12-29T19:22:52;9.90;99.90
12223;DHT22;6174;49.058;8.524;2022-12-29T19:25:19;9.90;99.90
12223;DHT22;6174;49.058;8.524;2022-12-29T19:27:45;9.90;99.90
12223;DHT22;6174;49.058;8.524;2022-12-29T19:30:13;9.80;99.90
12223;DHT22;6174;49.058;8.524;2022-12-29T19:32:40;9.90;99.90
12223;DHT22;6174;49.058;8.524;2022-12-29T19:35:09;9.90;99.90
12223;DHT22;6174;49.058;8.524;2022-12-29T19:37:37;9.90;99.90
12223;DHT22;6174;49.058;8.524;2022-12-29T19:40:06;9.80;99.90
12223;DHT22;6174;49.058;8.524;2022-12-29T19:42:33;9.90;99.90
12223;DHT22;6174;49.058;8.524;2022-12-29T19:45:00;9.90;99.90
12223;DHT22;6174;49.058;8.524;2022-12-29T19:47:27;9.90;99.90
12223;DHT22;6174;49.058;8.524;2022-12-29T19:49:55;9.90;99.90
12223;DHT22;6174;49.058;8.524;2022-12-29T19:52:24;10.00;99.90
12223;DHT22;6174;49.058;8.524;2022-12-29T19:54:51;10.00;99.90
12223;DHT22;6174;49.058;8.524;2022-12-29T19:57:18;10.00;99.90
12223;DHT22;6174;49.058;8.524;2022-12-29T19:59:44;10.00;99.90
12223;DHT22;6174;49.058;8.524;2022-12-29T20:02:17;10.00;99.90
12223;DHT22;6174;49.058;8.524;2022-12-29T20:04:44;9.90;99.90
12223;DHT22;6174;49.058;8.524;2022-12-29T20:07:11;10.00;99.90
12223;DHT22;6174;49.058;8.524;2022-12-29T20:09:39;10.00;99.90
12223;DHT22;6174;49.058;8.524;2022-12-29T20:12:06;10.00;99.90
12223;DHT22;6174;49.058;8.524;2022-12-29T20:14:33;10.00;99.90
12223;DHT22;6174;49.058;8.524;2022-12-29T20:16:59;10.00;99.90
12223;DHT22;6174;49.058;8.524;2022-12-29T20:19:26;10.00;99.90
12223;DHT22;6174;49.058;8.524;2022-12-29T20:21:54;10.00;99.90
12223;DHT22;6174;49.058;8.524;2022-12-29T20:24:21;9.90;99.90
12223;DHT22;6174;49.058;8.524;2022-12-29T20:26:50;10.00;99.90
12223;DHT22;6174;49.058;8.524;2022-12-29T20:29:17;9.90;99.90
12223;DHT22;6174;49.058;8.524;2022-12-29T20:31:44;10.00;99.90
12223;DHT22;6174;49.058;8.524;2022-12-29T20:34:11;10.00;99.90
12223;DHT22;6174;49.058;8.524;2022-12-29T20:36:40;10.10;99.90
12223;DHT22;6174;49.058;8.524;2022-12-29T20:39:13;10.00;99.90
12223;DHT22;6174;49.058;8.524;2022-12-29T20:41:40;10.00;99.90
12223;DHT22;6174;49.058;8.524;2022-12-29T20:44:09;9.90;99.90
12223;DHT22;6174;49.058;8.524;2022-12-29T20:46:36;9.90;99.90
12223;DHT22;6174;49.058;8.524;2022-12-29T20:49:03;9.90;99.90
12223;DHT22;6174;49.058;8.524;2022-12-29T20:51:30;9.90;99.90
12223;DHT22;6174;49.058;8.524;2022-12-29T20:53:57;9.90;99.90
12223;DHT22;6174;49.058;8.524;2022-12-29T20:56:25;9.90;99.90
12223;DHT22;6174;49.058;8.524;2022-12-29T20:58:54;10.00;99.90
12223;DHT22;6174;49.058;8.524;2022-12-29T21:01:23;9.90;99.90
12223;DHT22;6174;49.058;8.524;2022-12-29T21:03:50;9.90;99.90
12223;DHT22;6174;49.058;8.524;2022-12-29T21:06:18;9.90;99.90
12223;DHT22;6174;49.058;8.524;2022-12-29T21:08:47;9.80;99.90
12223;DHT22;6174;49.058;8.524;2022-12-29T21:11:14;9.90;99.90
12223;DHT22;6174;49.058;8.524;2022-12-29T21:13:41;9.90;99.90
12223;DHT22;6174;49.058;8.524;2022-12-29T21:16:10;9.90;99.90
12223;DHT22;6174;49.058;8.524;2022-12-29T21:18:39;9.90;99.90
12223;DHT22;6174;49.058;8.524;2022-12-29T21:21:07;9.90;99.90
12223;DHT22;6174;49.058;8.524;2022-12-29T21:23:37;9.90;99.90
12223;DHT22;6174;49.058;8.524;2022-12-29T21:26:05;9.90;99.90
12223;DHT22;6174;49.058;8.524;2022-12-29T21:28:33;9.80;99.90
12223;DHT22;6174;49.058;8.524;2022-12-29T21:31:06;9.80;99.90